Time;durP1;ratioP1;P1;durP2;ratioP2;P2;SDS_P1;SDS_P2;PMS_P1;PMS_P2;Temp;Humidity;BMP_temperature;BMP_pressure;BME280_temperature;BME280_humidity;BME280_pressure;Samples;Min_cycle;Max_cycle;Signal;HPM_P1;HPM_P2
2021/12/06 00:01:23;;;;;;;38.20;25.58;;;;;;;1.64;97.72;101101.16;5089257;28;20023;-82
2021/12/06 00:03:50;;;;;;;40.47;26.08;;;;;;;1.71;98.13;101107.84;5088483;28;20364;-82
2021/12/06 00:06:18;;;;;;;37.22;25.55;;;;;;;1.65;98.14;101107.19;5087452;28;20031;-82
2021/12/06 00:08:44;;;;;;;36.85;25.40;;;;;;;1.69;98.22;101109.63;5089266;28;20022;-79
2021/12/06 00:11:11;;;;;;;38.53;26.52;;;;;;;1.67;97.37;101100.22;5089983;28;20024;-83
2021/12/06 00:13:43;;;;;;;41.95;26.05;;;;;;;1.68;97.90;101113.13;5093303;28;20120;-82
2021/12/06 00:16:15;;;;;;;37.72;26.50;;;;;;;1.62;97.66;101112.50;5090492;28;20024;-82
2021/12/06 00:18:40;;;;;;;38.83;26.17;;;;;;;1.65;98.04;101117.56;5085096;28;20016;-82
2021/12/06 00:21:07;;;;;;;37.88;26.77;;;;;;;1.64;98.44;101127.09;5090233;28;20538;-79
2021/12/06 00:23:33;;;;;;;36.40;26.45;;;;;;;1.62;98.59;101123.72;5089977;28;20123;-82
2021/12/06 00:26:00;;;;;;;38.35;26.15;;;;;;;1.62;98.54;101128.91;5091139;28;20016;-79
2021/12/06 00:28:25;;;;;;;39.88;27.25;;;;;;;1.68;99.52;101136.47;5090304;28;20502;-82
2021/12/06 00:30:52;;;;;;;41.83;28.08;;;;;;;1.67;99.69;101133.94;5085325;28;20114;-84
2021/12/06 00:33:18;;;;;;;43.45;28.20;;;;;;;1.73;99.62;101137.16;5090674;28;20107;-83
2021/12/06 00:35:43;;;;;;;45.45;28.38;;;;;;;1.72;99.23;101137.22;5089972;28;20451;-82
2021/12/06 00:38:09;;;;;;;44.28;29.38;;;;;;;1.70;98.88;101147.66;5090138;28;20062;-83
2021/12/06 00:40:38;;;;;;;46.83;30.15;;;;;;;1.74;99.25;101143.19;5081425;28;20107;-83
2021/12/06 00:43:07;;;;;;;42.70;29.02;;;;;;;1.74;99.72;101149.25;5089259;28;20024;-80
2021/12/06 00:45:33;;;;;;;45.00;28.55;;;;;;;1.77;99.73;101143.94;5088768;28;20031;-82
2021/12/06 00:47:59;;;;;;;47.10;29.90;;;;;;;1.79;99.51;101147.34;5085468;28;20400;-80
2021/12/06 00:50:30;;;;;;;45.70;30.27;;;;;;;1.82;100.00;101156.75;5089664;28;20632;-82
2021/12/06 00:52:56;;;;;;;44.17;29.63;;;;;;;1.81;99.99;101155.91;5089336;28;20028;-83
2021/12/06 00:55:22;;;;;;;48.65;30.45;;;;;;;1.82;99.52;101164.53;5090238;28;20028;-82
2021/12/06 00:57:53;;;;;;;41.90;29.63;;;;;;;1.87;100.00;101176.47;5089166;28;20028;-82
2021/12/06 01:00:24;;;;;;;43.55;28.73;;;;;;;1.81;99.82;101174.06;5088915;28;20034;-82
2021/12/06 01:02:50;;;;;;;40.42;29.30;;;;;;;1.81;100.00;101175.81;5086156;28;20024;-82
2021/12/06 01:05:16;;;;;;;42.38;29.38;;;;;;;1.85;100.00;101182.59;5089469;28;20035;-82
2021/12/06 01:07:42;;;;;;;38.40;27.50;;;;;;;1.93;100.00;101198.75;5091580;28;20034;-82
2021/12/06 01:10:09;;;;;;;38.78;27.25;;;;;;;1.87;99.63;101186.84;5090405;28;20391;-82
2021/12/06 01:12:35;;;;;;;38.35;27.50;;;;;;;1.87;100.00;101180.81;5089621;28;20111;-82
2021/12/06 01:15:00;;;;;;;38.42;27.73;;;;;;;1.89;100.00;101179.84;5094606;28;20059;-81
2021/12/06 01:17:26;;;;;;;40.25;27.83;;;;;;;1.95;100.00;101191.78;5085383;28;20506;-81
2021/12/06 01:19:51;;;;;;;35.75;27.15;;;;;;;1.98;100.00;101193.41;5082783;28;20036;-84
2021/12/06 01:22:30;;;;;;;38.75;27.85;;;;;;;1.95;100.00;101188.34;5090602;28;20028;-82
2021/12/06 01:25:03;;;;;;;43.38;29.80;;;;;;;1.91;100.00;101191.94;5082544;28;20012;-84
2021/12/06 01:27:43;;;;;;;43.63;28.13;;;;;;;1.93;100.00;101201.34;5089214;28;20035;-84
2021/12/06 01:41:06;;;;;;;44.15;30.30;;;;;;;1.97;100.00;101202.09;5088167;28;20565;-82
2021/12/06 01:43:32;;;;;;;44.65;30.92;;;;;;;2.00;100.00;101209.78;5092995;28;20024;-82
2021/12/06 01:45:57;;;;;;;45.00;30.98;;;;;;;2.04;100.00;101214.84;5092317;28;20069;-82
2021/12/06 01:48:23;;;;;;;46.80;30.02;;;;;;;1.98;100.00;101206.38;5093272;28;20031;-82
2021/12/06 01:50:48;;;;;;;44.80;30.48;;;;;;;2.04;100.00;101219.19;5090549;28;20545;-85
2021/12/06 01:53:13;;;;;;;45.40;30.15;;;;;;;2.03;100.00;101212.31;5092247;28;20020;-79
2021/12/06 01:55:39;;;;;;;41.40;29.77;;;;;;;2.08;100.00;101218.19;5093233;28;20039;-80
2021/12/06 01:58:07;;;;;;;44.42;29.77;;;;;;;2.06;100.00;101222.59;5092218;28;20913;-82
2021/12/06 02:00:49;;;;;;;41.33;28.92;;;;;;;2.13;100.00;101231.84;5092077;28;20027;-82
2021/12/06 02:03:15;;;;;;;43.27;29.30;;;;;;;2.13;100.00;101240.50;5092360;28;20098;-82
2021/12/06 02:05:45;;;;;;;39.65;29.38;;;;;;;2.07;100.00;101229.47;5093172;28;20459;-82
2021/12/06 02:08:13;;;;;;;44.38;29.23;;;;;;;2.12;100.00;101230.16;5089340;28;20032;-82
2021/12/06 02:10:40;;;;;;;43.20;30.75;;;;;;;2.12;100.00;101235.34;5090999;28;20048;-82
2021/12/06 02:13:08;;;;;;;48.53;30.35;;;;;;;2.08;100.00;101225.97;5093249;28;20035;-82
2021/12/06 02:18:12;;;;;;;39.63;29.27;;;;;;;2.11;100.00;101231.06;5092130;28;20114;-82
2021/12/06 02:20:49;;;;;;;45.05;29.50;;;;;;;2.06;100.00;101233.81;5090604;28;20399;-82
2021/12/06 02:23:16;;;;;;;43.97;28.85;;;;;;;2.13;100.00;101242.25;5085230;28;20020;-82
2021/12/06 02:25:45;;;;;;;44.40;29.60;;;;;;;2.08;100.00;101236.34;5089991;28;20046;-82
2021/12/06 02:28:13;;;;;;;46.40;29.77;;;;;;;2.03;100.00;101235.66;5091485;28;20111;-83
2021/12/06 02:30:39;;;;;;;47.85;31.17;;;;;;;2.09;100.00;101248.44;5092030;28;20055;-83
2021/12/06 02:33:06;;;;;;;43.95;29.92;;;;;;;2.06;100.00;101240.75;5091816;28;20488;-83
2021/12/06 02:35:31;;;;;;;42.58;30.08;;;;;;;2.08;100.00;101246.75;5091453;28;20031;-83
2021/12/06 02:37:58;;;;;;;44.40;31.02;;;;;;;2.07;100.00;101245.88;5091723;28;20028;-83
2021/12/06 02:40:28;;;;;;;45.65;30.17;;;;;;;2.17;100.00;101262.84;5092156;28;20028;-83
2021/12/06 02:42:54;;;;;;;44.72;29.95;;;;;;;2.18;100.00;101263.69;5077335;28;20434;-83
2021/12/06 02:45:24;;;;;;;43.15;30.50;;;;;;;2.21;100.00;101268.78;5090552;28;20032;-82
2021/12/06 02:47:53;;;;;;;41.60;30.48;;;;;;;2.21;100.00;101271.38;5091618;28;20060;-81
2021/12/06 02:50:23;;;;;;;41.60;29.73;;;;;;;2.24;100.00;101273.88;5091008;28;20032;-81
2021/12/06 02:52:48;;;;;;;44.30;30.88;;;;;;;2.22;100.00;101267.88;5090928;28;20078;-82
2021/12/06 02:55:29;;;;;;;47.70;32.75;;;;;;;2.20;100.00;101269.69;5083677;28;20028;-81
2021/12/06 02:57:58;;;;;;;46.90;31.92;;;;;;;2.26;100.00;101277.28;5088898;28;20020;-82
2021/12/06 03:00:26;;;;;;;49.78;32.70;;;;;;;2.24;100.00;101268.69;5084207;28;20033;-81
2021/12/06 03:02:51;;;;;;;49.25;32.95;;;;;;;2.27;100.00;101273.78;5088362;28;20430;-82
2021/12/06 03:05:17;;;;;;;47.95;31.85;;;;;;;2.22;100.00;101262.69;5086118;28;20035;-81
2021/12/06 03:07:50;;;;;;;48.63;31.85;;;;;;;2.29;100.00;101281.50;5091197;28;20028;-82
2021/12/06 03:10:18;;;;;;;47.08;30.88;;;;;;;2.31;100.00;101283.16;5089010;28;20023;-82
2021/12/06 03:12:43;;;;;;;48.85;32.20;;;;;;;2.31;100.00;101279.72;5092441;28;20062;-81
2021/12/06 03:15:09;;;;;;;49.30;32.72;;;;;;;2.35;100.00;101287.34;5090999;28;20032;-82
2021/12/06 03:17:35;;;;;;;49.47;32.15;;;;;;;2.32;100.00;101277.06;5087900;28;20499;-82
2021/12/06 03:20:06;;;;;;;45.63;32.25;;;;;;;2.32;100.00;101277.06;5091206;28;20050;-82
2021/12/06 03:22:32;;;;;;;46.78;32.22;;;;;;;2.35;100.00;101279.56;5090445;28;20039;-82
2021/12/06 03:24:57;;;;;;;46.63;30.70;;;;;;;2.33;100.00;101281.34;5089773;28;20435;-82
2021/12/06 03:27:23;;;;;;;50.08;31.25;;;;;;;2.30;100.00;101276.28;5080996;28;20428;-82
2021/12/06 03:29:48;;;;;;;46.88;31.17;;;;;;;2.27;100.00;101284.16;5088570;28;20119;-81
2021/12/06 03:32:14;;;;;;;46.72;31.40;;;;;;;2.30;100.00;101278.88;5084057;28;20052;-82
2021/12/06 03:34:40;;;;;;;46.17;30.95;;;;;;;2.28;100.00;101279.81;5090737;28;20537;-80
2021/12/06 03:37:07;;;;;;;48.67;31.13;;;;;;;2.30;100.00;101281.47;5090095;28;20107;-83
2021/12/06 03:39:39;;;;;;;45.42;31.27;;;;;;;2.27;100.00;101281.56;5089720;28;20035;-80
2021/12/06 03:42:07;;;;;;;51.37;32.37;;;;;;;2.36;100.00;101283.84;5089819;28;20024;-82
2021/12/06 03:44:33;;;;;;;54.45;33.25;;;;;;;2.38;100.00;101289.84;5090472;28;20054;-82
2021/12/06 03:47:04;;;;;;;51.70;33.33;;;;;;;2.40;100.00;101293.25;5087626;28;20057;-83
2021/12/06 03:49:30;;;;;;;48.08;33.00;;;;;;;2.41;100.00;101296.72;5090799;28;20471;-82
2021/12/06 03:51:55;;;;;;;57.17;34.00;;;;;;;2.40;100.00;101290.66;5090574;28;20040;-82
2021/12/06 03:54:26;;;;;;;50.33;34.05;;;;;;;2.35;100.00;101281.31;5089895;28;20047;-82
2021/12/06 03:56:52;;;;;;;54.20;34.65;;;;;;;2.43;100.00;101290.56;5090525;28;20024;-82
2021/12/06 03:59:17;;;;;;;49.63;33.53;;;;;;;2.36;100.00;101276.06;5090458;28;20103;-82
2021/12/06 04:01:43;;;;;;;50.92;34.03;;;;;;;2.37;100.00;101280.34;5091759;28;20444;-81
2021/12/06 04:04:10;;;;;;;47.67;32.13;;;;;;;2.40;100.00;101293.25;5082519;28;20404;-84
2021/12/06 04:06:37;;;;;;;53.60;33.50;;;;;;;2.30;100.00;101289.25;5088003;28;20028;-84
2021/12/06 04:09:05;;;;;;;52.72;34.63;;;;;;;2.30;100.00;101284.06;5089714;28;20050;-84
2021/12/06 04:11:30;;;;;;;51.50;33.50;;;;;;;2.34;100.00;101301.22;5090085;28;20032;-82
2021/12/06 04:13:56;;;;;;;51.28;33.83;;;;;;;2.31;100.00;101306.53;5097143;28;20061;-84
2021/12/06 04:16:21;;;;;;;49.47;31.88;;;;;;;2.31;100.00;101301.34;5091049;28;20020;-84
2021/12/06 04:18:47;;;;;;;50.78;33.10;;;;;;;2.28;100.00;101285.84;5088986;28;20028;-82
2021/12/06 04:21:13;;;;;;;48.83;31.90;;;;;;;2.37;100.00;101300.28;5083161;28;20024;-81
2021/12/06 04:23:39;;;;;;;46.92;32.33;;;;;;;2.39;100.00;101298.47;5090310;28;20016;-82
2021/12/06 04:26:05;;;;;;;50.70;33.72;;;;;;;2.40;100.00;101301.06;5091282;28;20679;-85
2021/12/06 04:28:34;;;;;;;57.80;34.10;;;;;;;2.40;100.00;101298.47;5087423;28;20946;-85
2021/12/06 04:31:00;;;;;;;55.33;34.40;;;;;;;2.42;100.00;101301.00;5089039;28;20391;-82
2021/12/06 04:33:26;;;;;;;54.78;33.70;;;;;;;2.33;100.00;101294.34;5089142;28;20028;-81
2021/12/06 04:35:53;;;;;;;50.08;31.67;;;;;;;2.29;100.00;101292.75;5085834;28;20485;-80
2021/12/06 04:38:18;;;;;;;44.88;31.13;;;;;;;2.28;100.00;101298.84;5086736;28;20103;-79
2021/12/06 04:40:44;;;;;;;44.78;31.13;;;;;;;2.21;100.00;101305.13;5087346;28;20028;-82
2021/12/06 04:43:10;;;;;;;49.92;31.77;;;;;;;2.15;100.00;101310.53;5089406;28;20034;-82
2021/12/06 04:45:36;;;;;;;48.22;31.90;;;;;;;2.08;100.00;101309.03;5089345;28;20032;-81
2021/12/06 04:48:03;;;;;;;45.42;31.88;;;;;;;2.06;99.85;101313.41;5089145;28;20027;-82
2021/12/06 04:50:31;;;;;;;40.50;29.58;;;;;;;2.00;100.00;101316.16;5088897;28;20521;-82
2021/12/06 04:53:07;;;;;;;49.55;31.30;;;;;;;1.96;99.86;101323.19;5087773;28;20054;-82
2021/12/06 04:55:41;;;;;;;43.40;30.48;;;;;;;1.92;99.83;101333.72;5086874;28;20030;-82
2021/12/06 04:58:10;;;;;;;47.10;29.58;;;;;;;1.80;99.68;101320.25;5089046;28;20487;-82
2021/12/06 05:00:54;;;;;;;43.05;29.60;;;;;;;1.75;99.04;101322.13;5086865;28;20502;-82
2021/12/06 05:03:19;;;;;;;43.78;29.98;;;;;;;1.70;99.34;101312.78;5086771;28;20048;-82
2021/12/06 05:06:01;;;;;;;39.33;27.17;;;;;;;1.72;99.04;101332.59;5088481;28;20074;-82
2021/12/06 05:08:33;;;;;;;42.88;27.98;;;;;;;1.61;98.64;101334.66;5087438;28;20059;-82
2021/12/06 05:11:02;;;;;;;44.83;29.00;;;;;;;1.48;99.21;101317.75;5080112;28;20028;-82
2021/12/06 05:13:28;;;;;;;40.28;27.85;;;;;;;1.48;99.64;101333.28;5087461;28;20730;-82
2021/12/06 05:15:54;;;;;;;40.90;28.13;;;;;;;1.42;99.21;101338.66;5089735;28;20020;-82
2021/12/06 05:18:19;;;;;;;44.15;28.48;;;;;;;1.40;99.34;101340.44;5087351;28;20032;-82
2021/12/06 05:20:44;;;;;;;43.72;28.15;;;;;;;1.36;99.27;101344.03;5089341;28;20026;-81
2021/12/06 05:23:10;;;;;;;50.75;28.17;;;;;;;1.33;99.37;101346.69;5090095;28;20081;-82
2021/12/06 05:25:36;;;;;;;108.15;28.73;;;;;;;1.21;99.22;101345.31;5086738;28;20310;-82
2021/12/06 05:28:04;;;;;;;66.47;28.40;;;;;;;1.15;99.27;101356.66;5085049;28;20389;-82
2021/12/06 05:30:31;;;;;;;163.68;28.48;;;;;;;1.17;99.68;101359.22;5088857;28;20095;-82
2021/12/06 05:32:58;;;;;;;154.20;28.25;;;;;;;1.10;99.55;101353.34;5088131;28;20047;-82
2021/12/06 05:35:25;;;;;;;112.47;28.67;;;;;;;1.06;100.00;101350.88;5089196;28;20473;-82
2021/12/06 05:37:56;;;;;;;48.38;28.80;;;;;;;1.06;100.00;101346.53;5088298;28;20035;-82
2021/12/06 05:40:33;;;;;;;59.15;30.35;;;;;;;1.09;100.00;101343.88;5089061;28;20059;-80
2021/12/06 05:43:02;;;;;;;118.32;30.23;;;;;;;1.08;100.00;101346.50;5082903;28;20554;-82
2021/12/06 05:45:29;;;;;;;72.38;28.55;;;;;;;1.11;100.00;101355.03;5089138;28;20012;-82
2021/12/06 05:47:56;;;;;;;100.15;30.02;;;;;;;1.13;100.00;101348.06;5089546;28;20028;-82
2021/12/06 05:50:24;;;;;;;96.85;31.77;;;;;;;1.15;100.00;101354.06;5088862;28;20081;-82
2021/12/06 05:52:54;;;;;;;108.75;31.50;;;;;;;1.12;100.00;101351.56;5087648;28;20447;-82
2021/12/06 05:55:21;;;;;;;83.78;31.58;;;;;;;1.18;100.00;101353.97;5088252;28;20024;-82
2021/12/06 05:57:46;;;;;;;151.65;33.15;;;;;;;1.15;100.00;101346.28;5088238;28;20068;-82
2021/12/06 06:00:15;;;;;;;211.73;33.67;;;;;;;1.14;100.00;101354.97;5083379;28;20051;-84
2021/12/06 06:02:44;;;;;;;193.25;35.22;;;;;;;1.11;100.00;101352.44;5086870;28;20032;-82
2021/12/06 06:05:10;;;;;;;176.10;35.30;;;;;;;1.10;100.00;101357.69;5081282;28;20438;-83
2021/12/06 06:07:36;;;;;;;130.55;33.65;;;;;;;1.16;100.00;101368.72;5087822;28;20133;-80
2021/12/06 06:10:02;;;;;;;206.98;35.65;;;;;;;1.09;100.00;101362.00;5088008;28;20503;-83
2021/12/06 06:12:28;;;;;;;157.57;35.88;;;;;;;1.10;100.00;101374.06;5089287;28;20034;-82
2021/12/06 06:14:53;;;;;;;119.60;34.28;;;;;;;1.11;100.00;101373.19;5089472;28;20012;-83
2021/12/06 06:17:20;;;;;;;61.97;33.92;;;;;;;1.12;100.00;101372.28;5082308;28;20028;-83
2021/12/06 06:19:51;;;;;;;68.00;34.00;;;;;;;1.22;100.00;101386.72;5088213;28;20068;-82
2021/12/06 06:22:18;;;;;;;138.17;35.30;;;;;;;1.15;100.00;101374.78;5091129;28;20114;-80
2021/12/06 06:24:44;;;;;;;154.50;35.42;;;;;;;1.23;100.00;101395.34;5092542;28;20435;-82
2021/12/06 06:27:09;;;;;;;137.15;36.05;;;;;;;1.17;100.00;101385.97;5091601;28;20032;-82
2021/12/06 06:29:35;;;;;;;77.32;36.15;;;;;;;1.22;100.00;101394.50;5091911;28;20035;-82
2021/12/06 06:32:01;;;;;;;107.07;34.03;;;;;;;1.24;100.00;101392.72;5091018;28;20090;-82
2021/12/06 06:34:26;;;;;;;134.23;37.97;;;;;;;1.21;100.00;101381.59;5086053;28;20075;-82
2021/12/06 06:36:52;;;;;;;102.80;37.22;;;;;;;1.27;100.00;101399.56;5092333;28;20099;-82
2021/12/06 06:39:19;;;;;;;109.05;37.08;;;;;;;1.28;100.00;101393.47;5091514;28;20047;-82
2021/12/06 06:41:49;;;;;;;202.30;38.95;;;;;;;1.26;100.00;101387.50;5091029;28;20024;-82
2021/12/06 06:44:15;;;;;;;83.35;37.55;;;;;;;1.28;100.00;101387.44;5091680;28;20020;-82
2021/12/06 06:46:44;;;;;;;159.35;37.95;;;;;;;1.28;100.00;101382.25;5092196;28;20380;-82
2021/12/06 06:49:09;;;;;;;238.45;40.35;;;;;;;1.32;100.00;101394.25;5089874;28;20035;-82
2021/12/06 06:51:36;;;;;;;187.02;41.22;;;;;;;1.33;100.00;101390.75;5091630;28;20028;-83
2021/12/06 06:54:02;;;;;;;216.27;40.75;;;;;;;1.33;100.00;101390.75;5090554;28;20052;-83
2021/12/06 06:56:27;;;;;;;79.80;38.05;;;;;;;1.32;100.00;101389.06;5090895;28;20073;-82
2021/12/06 06:58:53;;;;;;;195.55;42.83;;;;;;;1.31;100.00;101387.38;5091873;28;20028;-83
2021/12/06 07:01:19;;;;;;;87.63;39.83;;;;;;;1.32;100.00;101386.47;5091193;28;20438;-81
2021/12/06 07:03:44;;;;;;;79.43;39.40;;;;;;;1.39;100.00;101390.59;5090955;28;20028;-82
2021/12/06 07:06:09;;;;;;;163.13;41.25;;;;;;;1.40;100.00;101393.16;5089334;28;20077;-82
2021/12/06 07:08:35;;;;;;;141.02;41.65;;;;;;;1.40;100.00;101387.09;5084401;28;20032;-82
2021/12/06 07:11:01;;;;;;;225.32;43.58;;;;;;;1.44;100.00;101396.50;5089993;28;20092;-82
2021/12/06 07:13:27;;;;;;;220.50;43.67;;;;;;;1.38;100.00;101394.06;5093094;28;20395;-83
2021/12/06 07:15:53;;;;;;;138.75;41.50;;;;;;;1.38;100.00;101402.72;5088918;28;20035;-82
2021/12/06 07:18:19;;;;;;;169.85;43.22;;;;;;;1.38;100.00;101400.13;5089942;28;20391;-82
2021/12/06 07:20:44;;;;;;;119.22;43.88;;;;;;;1.44;100.00;101409.47;5089423;28;20028;-82
2021/12/06 07:23:10;;;;;;;102.55;42.17;;;;;;;1.47;100.00;101411.97;5088836;28;20102;-82
2021/12/06 07:25:35;;;;;;;93.10;41.55;;;;;;;1.42;100.00;101404.31;5083830;28;20035;-82
2021/12/06 07:28:04;;;;;;;160.02;42.92;;;;;;;1.44;100.00;101414.66;5090383;28;20114;-82
2021/12/06 07:30:29;;;;;;;144.07;43.53;;;;;;;1.50;100.00;101424.84;5089417;28;20065;-82
2021/12/06 07:32:55;;;;;;;105.18;43.00;;;;;;;1.45;100.00;101417.19;5089607;28;20377;-83
2021/12/06 07:35:22;;;;;;;78.82;42.97;;;;;;;1.50;100.00;101424.84;5090262;28;20039;-82
2021/12/06 07:37:48;;;;;;;85.10;43.67;;;;;;;1.54;100.00;101421.28;5089988;28;20016;-84
2021/12/06 07:40:15;;;;;;;82.85;43.38;;;;;;;1.61;100.00;101433.22;5088986;28;20020;-82
2021/12/06 07:42:49;;;;;;;82.10;41.50;;;;;;;1.62;100.00;101429.72;5090910;28;20039;-82
2021/12/06 07:45:15;;;;;;;84.85;43.25;;;;;;;1.60;100.00;101413.31;5089256;28;20368;-82
2021/12/06 07:47:41;;;;;;;90.15;42.10;;;;;;;1.64;100.00;101417.56;5091105;28;20123;-82
2021/12/06 07:50:11;;;;;;;82.65;43.45;;;;;;;1.67;100.00;101416.63;5090097;28;20476;-82
2021/12/06 07:52:37;;;;;;;87.40;43.25;;;;;;;1.64;100.00;101407.19;5089741;28;20473;-82
2021/12/06 07:55:06;;;;;;;84.53;43.92;;;;;;;1.68;100.00;101411.38;5089251;28;20024;-82
2021/12/06 07:57:31;;;;;;;101.05;47.17;;;;;;;1.76;100.00;101414.59;5088592;28;20463;-83
2021/12/06 07:59:57;;;;;;;92.63;45.80;;;;;;;1.72;100.00;101396.59;5089661;28;20035;-83
2021/12/06 08:02:22;;;;;;;132.82;50.42;;;;;;;1.80;100.00;101403.25;5091108;28;20039;-82
2021/12/06 08:04:58;;;;;;;131.63;53.05;;;;;;;1.80;100.00;101398.06;5088764;28;20030;-82
2021/12/06 08:07:24;;;;;;;156.40;54.03;;;;;;;1.77;100.00;101387.78;5088421;28;20031;-82
2021/12/06 08:09:49;;;;;;;144.77;52.25;;;;;;;1.78;100.00;101392.06;5088370;28;20028;-82
2021/12/06 08:12:15;;;;;;;178.55;53.67;;;;;;;1.80;100.00;101387.69;5086040;28;20077;-82
2021/12/06 08:14:40;;;;;;;163.13;54.70;;;;;;;1.79;100.00;101398.97;5091260;28;20481;-82
2021/12/06 08:17:09;;;;;;;129.38;53.58;;;;;;;1.77;100.00;101389.53;5088332;28;20038;-82
2021/12/06 08:19:34;;;;;;;143.60;54.75;;;;;;;1.87;100.00;101399.56;5090806;28;20031;-82
2021/12/06 08:21:59;;;;;;;182.73;57.15;;;;;;;1.79;100.00;101387.72;5089439;28;20028;-82
2021/12/06 08:24:26;;;;;;;170.77;56.70;;;;;;;1.80;100.00;101384.25;5090277;28;20103;-82
2021/12/06 08:26:54;;;;;;;140.80;56.10;;;;;;;1.89;100.00;101402.97;5088860;28;20277;-82
2021/12/06 08:29:19;;;;;;;160.15;56.22;;;;;;;1.84;100.00;101391.88;5087019;28;20038;-82
2021/12/06 08:31:45;;;;;;;149.10;55.38;;;;;;;1.85;100.00;101401.38;5090006;28;20040;-82
2021/12/06 08:34:12;;;;;;;154.40;56.95;;;;;;;1.86;100.00;101403.06;5090141;28;20121;-81
2021/12/06 08:36:37;;;;;;;160.43;57.88;;;;;;;1.84;100.00;101399.66;5090281;28;20052;-83
2021/12/06 08:39:04;;;;;;;149.60;56.95;;;;;;;1.93;100.00;101423.63;5088612;28;20127;-83
2021/12/06 08:41:31;;;;;;;146.52;56.53;;;;;;;1.89;100.00;101423.72;5083465;28;20020;-82
2021/12/06 08:43:57;;;;;;;161.80;60.10;;;;;;;1.90;100.00;101427.19;5089428;28;20024;-83
2021/12/06 08:46:25;;;;;;;156.63;57.85;;;;;;;1.92;100.00;101432.31;5086827;28;20142;-83
2021/12/06 08:48:53;;;;;;;157.25;59.22;;;;;;;1.94;100.00;101433.13;5086989;28;20055;-83
2021/12/06 08:51:25;;;;;;;161.68;57.80;;;;;;;1.93;100.00;101426.25;5089744;28;20479;-83
2021/12/06 08:53:57;;;;;;;147.32;54.47;;;;;;;2.00;100.00;101443.31;5090719;28;20412;-83
2021/12/06 08:56:23;;;;;;;145.18;54.10;;;;;;;1.99;100.00;101444.22;5089630;28;20372;-83
2021/12/06 08:58:49;;;;;;;137.43;53.35;;;;;;;1.97;100.00;101430.44;5091091;28;20023;-82
2021/12/06 09:01:15;;;;;;;143.52;56.10;;;;;;;1.99;100.00;101437.28;5090620;28;20455;-83
2021/12/06 09:03:40;;;;;;;155.45;56.58;;;;;;;1.96;100.00;101439.13;5090454;28;20039;-81
2021/12/06 09:06:08;;;;;;;151.52;55.10;;;;;;;1.95;100.00;101440.03;5081071;28;20050;-83
2021/12/06 09:08:35;;;;;;;138.32;52.80;;;;;;;2.02;100.00;101449.34;5074719;28;20020;-83
2021/12/06 09:11:00;;;;;;;144.90;52.20;;;;;;;1.96;100.00;101442.56;5084707;28;20020;-83
2021/12/06 09:13:28;;;;;;;133.10;50.55;;;;;;;1.93;100.00;101444.41;5087099;28;20510;-83
2021/12/06 09:15:55;;;;;;;126.60;49.70;;;;;;;1.96;100.00;101444.31;5086991;28;20120;-83
2021/12/06 09:18:21;;;;;;;138.27;50.78;;;;;;;2.02;100.00;101457.13;5088984;28;20500;-83
2021/12/06 09:20:48;;;;;;;134.70;49.88;;;;;;;2.00;100.00;101451.09;5096618;28;20024;-82
2021/12/06 09:23:14;;;;;;;128.13;49.60;;;;;;;1.99;100.00;101444.22;5088268;28;20039;-83
2021/12/06 09:25:43;;;;;;;137.75;50.40;;;;;;;2.01;100.00;101437.28;5085156;28;20043;-82
2021/12/06 09:28:09;;;;;;;141.30;49.65;;;;;;;1.99;100.00;101444.22;5089858;28;20111;-82
2021/12/06 09:30:37;;;;;;;138.63;50.22;;;;;;;2.03;100.00;101446.72;5087305;28;20101;-81
2021/12/06 09:33:08;;;;;;;143.50;51.88;;;;;;;2.05;100.00;101454.44;5089155;28;20251;-82
2021/12/06 09:35:37;;;;;;;142.52;51.40;;;;;;;2.04;100.00;101442.38;5088780;28;20112;-82
2021/12/06 09:38:04;;;;;;;146.52;51.67;;;;;;;2.11;100.00;101449.94;5088531;28;20063;-82
2021/12/06 09:40:32;;;;;;;141.93;52.33;;;;;;;2.12;100.00;101443.00;5089019;28;20460;-82
2021/12/06 09:42:59;;;;;;;138.07;52.35;;;;;;;2.12;100.00;101451.63;5081482;28;20024;-82
2021/12/06 09:45:27;;;;;;;155.23;53.05;;;;;;;2.13;100.00;101452.47;5087530;28;20093;-82
2021/12/06 09:47:54;;;;;;;183.57;55.53;;;;;;;2.10;100.00;101447.38;5087237;28;20099;-82
2021/12/06 09:50:24;;;;;;;159.93;52.83;;;;;;;2.16;100.00;101452.38;5089287;28;20099;-80
2021/12/06 09:52:50;;;;;;;191.45;56.20;;;;;;;2.13;100.00;101448.13;5088237;28;20024;-79
2021/12/06 09:55:17;;;;;;;234.40;55.92;;;;;;;2.10;100.00;101450.81;5091482;28;20109;-80
2021/12/06 09:57:43;;;;;;;273.10;56.55;;;;;;;2.09;100.00;101449.13;5091430;28;20542;-79
2021/12/06 10:00:10;;;;;;;280.67;59.15;;;;;;;2.14;100.00;101459.38;5092704;28;20035;-80
2021/12/06 10:02:36;;;;;;;261.05;57.03;;;;;;;2.11;100.00;101455.13;5092544;28;20030;-80
2021/12/06 10:05:01;;;;;;;248.57;57.03;;;;;;;2.11;100.00;101449.06;5087120;28;20111;-80
2021/12/06 10:07:27;;;;;;;321.10;57.85;;;;;;;2.05;100.00;101433.69;5092862;28;20043;-80
2021/12/06 10:09:55;;;;;;;288.17;58.60;;;;;;;2.13;100.00;101449.88;5092631;28;20103;-79
2021/12/06 10:12:22;;;;;;;231.45;54.85;;;;;;;2.07;100.00;101431.91;5092134;28;20114;-79
2021/12/06 10:14:49;;;;;;;236.45;54.35;;;;;;;2.12;100.00;101445.59;5094296;28;20099;-80
2021/12/06 10:17:15;;;;;;;232.93;55.20;;;;;;;2.09;100.00;101427.50;5092192;28;20028;-79
2021/12/06 10:19:46;;;;;;;228.70;52.67;;;;;;;2.10;100.00;101427.47;5086142;28;20415;-80
2021/12/06 10:22:13;;;;;;;196.80;52.10;;;;;;;2.11;100.00;101425.72;5091338;28;20031;-78
2021/12/06 10:24:40;;;;;;;194.90;49.30;;;;;;;2.09;100.00;101419.72;5092485;28;20439;-80
2021/12/06 10:27:10;;;;;;;187.13;48.05;;;;;;;2.05;100.00;101418.97;5091602;28;20028;-79
2021/12/06 10:29:47;;;;;;;192.45;47.45;;;;;;;2.00;100.00;101405.28;5092322;28;20063;-80
2021/12/06 10:32:19;;;;;;;178.88;47.03;;;;;;;1.96;100.00;101402.78;5091833;28;20403;-82
2021/12/06 10:34:51;;;;;;;186.63;49.20;;;;;;;1.98;100.00;101412.22;5088401;28;20032;-81
2021/12/06 10:37:32;;;;;;;190.23;48.57;;;;;;;2.00;100.00;101409.59;5075381;28;20051;-81
2021/12/06 10:39:59;;;;;;;199.65;50.53;;;;;;;2.03;100.00;101407.78;5084421;28;20293;-83
2021/12/06 10:42:36;;;;;;;185.90;51.25;;;;;;;2.07;100.00;101421.50;5083511;28;20035;-82
2021/12/06 10:45:15;;;;;;;160.48;47.58;;;;;;;2.05;100.00;101407.75;5085190;28;20453;-82
2021/12/06 10:47:41;;;;;;;147.07;45.35;;;;;;;2.04;100.00;101404.28;5077705;28;20439;-82
2021/12/06 10:50:17;;;;;;;143.15;46.85;;;;;;;1.99;100.00;101385.38;5083019;28;20020;-82
2021/12/06 10:52:55;;;;;;;127.22;46.00;;;;;;;2.05;100.00;101386.97;5081768;28;20028;-82
2021/12/06 10:55:23;;;;;;;128.73;45.42;;;;;;;1.99;100.00;101376.75;5081101;28;20020;-82
2021/12/06 10:57:55;;;;;;;122.30;45.15;;;;;;;1.95;100.00;101372.56;5077720;28;20027;-82
2021/12/06 11:00:31;;;;;;;120.68;43.90;;;;;;;1.95;100.00;101362.16;5083473;28;20061;-82
2021/12/06 11:02:58;;;;;;;121.03;42.90;;;;;;;1.87;100.00;101352.88;5081851;28;20034;-82
2021/12/06 11:05:29;;;;;;;99.93;39.33;;;;;;;1.82;100.00;101353.91;5081492;28;20029;-82
2021/12/06 11:08:12;;;;;;;89.53;35.70;;;;;;;1.77;100.00;101355.81;5081716;28;20020;-82
2021/12/06 11:10:43;;;;;;;91.10;35.72;;;;;;;1.72;100.00;101363.72;5077684;28;20106;-82
2021/12/06 11:13:26;;;;;;;94.88;38.13;;;;;;;1.66;100.00;101350.09;5078025;28;20020;-82
2021/12/06 11:16:16;;;;;;;109.05;38.17;;;;;;;1.71;100.00;101341.28;5078691;28;20054;-82
2021/12/06 11:18:54;;;;;;;97.20;36.42;;;;;;;1.72;100.00;101348.16;5084739;28;20111;-84
2021/12/06 11:21:48;;;;;;;104.28;38.53;;;;;;;1.65;100.00;101325.91;5074277;28;20025;-85
2021/12/06 11:24:26;;;;;;;88.90;33.47;;;;;;;1.74;100.00;101323.03;5080099;28;20043;-82